[source: ADDS]
METAR
EDVE 222320Z AUTO 00000KT 9999 BKN150/// 13/12 Q1018

TAF EDVE 221700Z 2218/2221 33005KT 9999 SCT025 BKN035 BECMG 2218/2221 VRB03KT EDDV 222320Z AUTO 35002KT CAVOK 14/12 Q1018

TAF EDDV 222300Z 2300/2324 VRB02KT 9999 FEW045 PROB30 TEMPO 2303/2305 26010KT SHRA BKN050CB BECMG 2306/2308 30005KT BECMG 2308/2310 32010KT BECMG 2319/2321 VRB03KT ETHS 222320Z AUTO 00000KT 9000 // ////// 15/12 Q1018 ///

ETHC 222320Z AUTO 26002KT 7000 // ////// 15/13 Q1018 ///

EDVK 222050Z 33002KT CAVOK 16/13 Q1018

TAF EDVK 222000Z 2221/2303 31004KT CAVOK PROB30 TEMPO 2300/2303 TSRA BKN040CB
TAF
TAF EDVE 221700Z 2218/2221 33005KT 9999 SCT025 BKN035 BECMG 2218/2221 VRB03KT

TAF EDDV 222300Z 2300/2324 VRB02KT 9999 FEW045 PROB30 TEMPO 2303/2305 26010KT SHRA BKN050CB BECMG 2306/2308 30005KT BECMG 2308/2310 32010KT BECMG 2319/2321 VRB03KT

TAF EDVK 222000Z 2221/2303 31004KT CAVOK PROB30 TEMPO 2300/2303 TSRA BKN040CB

SR / SS: 03:25 / 19:23 UTC (EDVE 2022-07-23)
Vom „Fußgänger“ zum Luftfahrzeugführer! Lieber Carsten, herzlichen Glückwunsch zur bestandenen PPL-Prüfung! (19.7.) +++ Simon hat seine Praktische Prüfung bestanden! (12.07.) Herzlichen Glückwunsch und Always Happy Landings +++ Wir begrüßen Stefan S. als neues Mitglied der FFG! - Herzlichen Glückwunsch & Always Happy Landings! (06.07.) +++ (Falscheintrag ?? hr) Die FFG hat ein neues Vereinsmitglied und die Flugschule einen neuen Schüler: Herzlich Willkommen, Robert, und viel Spaß und Erfolg bei deiner Ausbildung. (2.7.) +++ Patrik hat heute sein erstes Solo geflogen - Herzlichen Glückwunsch & Always Happy Landings! (30.6.) +++ Herzlichen Glückwunsch Thiago zur erfolgreichen Prüfung (15.06.) & Always Happy Landings +++ Herzlichen Glückwunsch zu bestandenen PPL(A) Prüfung, Fabian - always happy landings ! (19.5.) +++ Stefan hat die Prüfung für die Instrumentenflugberechtigung bestanden! Gratulation und weiterhin Happy Landings! . (04.05.) +++ Herzlich Willkommen bei der FFG, Eike, und viel Spaß und Erfolg bei deiner Ausbildung. (22.04.) +++ Wir heißen Daniel H. als neuen Flugschüler willkommen und wünschen eine erfolgreiche Ausbildung! (01.04.) +++ Gratulation auch an Daniel P., der heute (31.03.) seinen ersten Alleinflug absolviert hat! Herzlichen Glückwunsch und weiterhin Happy Landings! +++ Norman hat am 15.03. seinen ersten Alleinflug absolviert! Herzlichen Glückwunsch und weiterhin Happy Landings! +++ Daniel hat heute (9.3.) seine Theoretische Prüfung bestanden! Herzlichen Glückwunsch und viel Spaß bei den nächsten Ausbildungsschritten +++ Marek hat heute (1.3.) seine Praktische Prüfung bestanden -Herzlichen Glückwunsch und Always Happy Landings +++ Herzlich Willkommen, Luis. Viel Spaß und Erfolg bei deiner Ausbildung. +++ Herzlich Willkommen, Maximilian. Viel Spaß und Erfolg bei deiner Ausbildung. +++ Simon hat heute (9.2.) seine Theoretische Prüfung bestanden - Herzlichen Glückwunsch +++ Paul hat heute (22. Nov) seine PPL-Prüfung bestanden! Herzlichen Glückwunsch und Always Happy Landings! +++ Willkommen bei der FFG, Vincent. Viel Spaß und Erfolg bei deiner Ausbildung! +++ Willkommen bei der FFG, Doris. Viel Spaß und Erfolg bei deiner Ausbildung! +++ Holger hat seine PPL-Prüfung bestanden! Gratulation und weiterhin Happy Landings! +++ Micha hat seine PPL-Prüfung bestanden! Gratulation und weiterhin Happy Landings! +++ Simon hat seinen ersten Alleinflug absolviert! Herzlichen Glückwunsch und weiterhin Happy Landings! +++ Wir heißen Torben als neuen Flugschüler willkommen und wünschen eine erfolgreiche Ausbildung! +++ Wir heißen Michel, Norman und Philip als neue Flugschüler willkommen und wünschen viel Spaß und Erfolg bei eurer Ausbildung! +++

wenig -> mittel -> viel

Professionelle Piloten arbeiten mit Checkliste
Ausdrucken und abarbeiten!

Weiterlesen ...

 Zugang zur DFS. Auf dem FFG-Account sind alle erforderlichen Daten unserer Maschinen hinterlegt.

DFS Login

Hier gibt es die AIP mit allen erforderlichen Karten die im Abo der FFG liegen zum Download für unsere Mitglieder.

Charts Zugang
Letztes NOTAM EDVE
von 13.06.2022 0819Z bis 13.09.2022 2159Z
COVID-19: HOURS OF OPERATION CHANGED: H24 PPR MON-FRI 1830-0500, SAT, SUN, HOL 1830-0700, PPR REQ AT LEAST 24HR IN ADVANCE VIA E-MAIL [more]

Letztes NOTAM EDBC
von 07.07.2022 1030Z bis 06.10.2022 0000Z
HIGH VOLUME OF BIRDS WITHIN THE VICINITY.

Letztes NOTAM EDVM
von 03.08.2022 1800Z bis 10.08.2022 0700Z
AD CLSD.

Letztes NOTAM EDOV
von 07.08.2022 0341Z bis 27.08.2022 1813Z
DAILY SR-SS
HEAVY GLIDER ACTIVITY AND FLIGHT TEST ACTIVITY, 20 NM RADIUS CENTERED FM ARP. GND UP TO FL095.

Letztes NOTAM EDDV
von 25.07.2022 0500Z bis 25.10.2022 2359Z
MOBILE CRANE 0.1NM SW HELIPAD 3, PSN 522743N 0094123E, ELEV 315FT / 148FT AGL. DAY AND NIGHT MARKED.

Letztes NOTAM EDVK
von 04.07.2022 0634Z bis 04.10.2022 2359Z
ILS AND LOC APCH RWY 27 FM WRB, TEMPO SUSPENDED, DUE TO OBST. RNAV(GPS) APCH AVBL. REF AIP AD 2 EDVK 4-2-1 DATED 17 JUN 2021.

Letztes NOTAM EDVS
von 09.06.2022 1544Z bis 09.08.2022 1200Z
WIP IN THE AREA ROLL STOP RWY 07. ROLL STOP TEMPO RELOCATED. TWY WIDTH NOT LIMITED.